North Cambridge, Massachusetts
Current Conditions -  °F | °C
As of 3:54 AM on Friday 24 Oct 2014 (Local Time) from KBOS Reporting Station
Light Rain Light Rain  
Wind Chill: 42°   Ceiling: 1100
Heat Index: 47°   Visibility: 4mi
Dew Point: 47°   Wind: 10mph
Humidity: 100%   Direction: 340°NNW
Pressure: 29.66"   Gusts: NA
Location:  42.3933°N, 71.1333°W
Report Text: KBOS 240754Z 34009KT 4SM -RA BR OVC011 08/08 A2966 RMK AO2 RAB10 SLP044 P0005 T00830083
Loading
Personal Weather Stations






























Interactive Weather Map
Tropical Storm Tracking
New forecast layout! Learn more

10-Day Weather Forecast

Advertisements
Track Severe Weather on mobile